Time;durP1;ratioP1;P1;durP2;ratioP2;P2;SDS_P1;SDS_P2;PMS_P1;PMS_P2;Temp;Humidity;BMP_temperature;BMP_pressure;BME280_temperature;BME280_humidity;BME280_pressure;Samples;Min_cycle;Max_cycle;Signal;HPM_P1;HPM_P2
2021/03/01 00:01:31;;;;;;;17.70;7.97;;;5.40;99.90;;;;;;5031295;28;20464;-54
2021/03/01 00:03:59;;;;;;;16.70;7.73;;;5.50;99.90;;;;;;5030611;28;20517;-58
2021/03/01 00:06:27;;;;;;;19.73;7.37;;;5.50;99.90;;;;;;5030743;28;20441;-56
2021/03/01 00:08:55;;;;;;;13.20;7.57;;;5.50;99.90;;;;;;5030908;28;20924;-55
2021/03/01 00:11:24;;;;;;;14.67;8.47;;;5.50;99.90;;;;;;5031325;28;20762;-58
2021/03/01 00:13:53;;;;;;;14.07;7.47;;;5.50;99.90;;;;;;5030988;28;20463;-56
2021/03/01 00:16:21;;;;;;;18.20;9.30;;;5.60;99.90;;;;;;5030953;28;20473;-57
2021/03/01 00:18:50;;;;;;;18.20;7.33;;;5.60;99.90;;;;;;5030896;28;20433;-56
2021/03/01 00:21:18;;;;;;;12.83;7.37;;;5.60;99.90;;;;;;5030348;28;20840;-57
2021/03/01 00:23:46;;;;;;;14.53;6.90;;;5.60;99.90;;;;;;5031309;28;20772;-55
2021/03/01 00:26:15;;;;;;;12.07;8.40;;;5.60;99.90;;;;;;5031095;28;20449;-54
2021/03/01 00:28:44;;;;;;;15.97;8.93;;;5.60;99.90;;;;;;5030494;28;20453;-53
2021/03/01 00:31:13;;;;;;;14.73;7.53;;;5.60;99.90;;;;;;5030333;28;20524;-57
2021/03/01 00:33:42;;;;;;;19.07;9.80;;;5.60;99.90;;;;;;5030297;28;20651;-56
2021/03/01 00:36:10;;;;;;;13.80;7.67;;;5.60;99.90;;;;;;5030063;28;20994;-53
2021/03/01 00:38:38;;;;;;;18.13;9.43;;;5.60;99.90;;;;;;5030010;28;20453;-57
2021/03/01 00:41:07;;;;;;;18.43;8.13;;;5.60;99.90;;;;;;5030096;28;20457;-57
2021/03/01 00:43:36;;;;;;;16.27;9.00;;;5.60;99.90;;;;;;5030101;28;20457;-57
2021/03/01 00:46:04;;;;;;;14.30;7.07;;;5.70;99.90;;;;;;5029668;28;20730;-53
2021/03/01 00:48:35;;;;;;;15.40;8.73;;;5.70;99.90;;;;;;5030322;28;20985;-57
2021/03/01 00:51:03;;;;;;;22.10;11.70;;;5.70;99.90;;;;;;5029486;28;20742;-57
2021/03/01 00:53:31;;;;;;;17.70;10.40;;;5.60;99.90;;;;;;5028889;28;20471;-55
2021/03/01 00:56:00;;;;;;;18.87;9.37;;;5.60;99.90;;;;;;5029342;28;20807;-56
2021/03/01 00:58:28;;;;;;;14.47;8.17;;;5.60;99.90;;;;;;5029192;28;20453;-56
2021/03/01 01:00:56;;;;;;;13.63;7.50;;;5.60;99.90;;;;;;5028787;28;20842;-53
2021/03/01 01:03:24;;;;;;;16.47;9.80;;;5.60;99.90;;;;;;5028253;28;20465;-56
2021/03/01 01:05:54;;;;;;;14.97;8.43;;;5.60;99.90;;;;;;5029991;28;20534;-55
2021/03/01 01:08:23;;;;;;;16.83;9.70;;;5.50;99.90;;;;;;5029328;28;20820;-56
2021/03/01 01:10:52;;;;;;;21.43;8.40;;;5.50;99.90;;;;;;5029414;28;20977;-56
2021/03/01 01:13:20;;;;;;;13.13;8.47;;;5.50;99.90;;;;;;5029197;28;20449;-56
2021/03/01 01:15:49;;;;;;;11.30;8.20;;;5.50;99.90;;;;;;5028535;28;20860;-56
2021/03/01 01:18:17;;;;;;;17.03;8.83;;;5.50;99.90;;;;;;5029172;28;20457;-55
2021/03/01 01:20:45;;;;;;;14.67;8.47;;;5.50;99.90;;;;;;5029445;28;20472;-56
2021/03/01 01:23:15;;;;;;;16.83;7.90;;;5.50;99.90;;;;;;5028826;28;20449;-56
2021/03/01 01:25:43;;;;;;;12.40;7.33;;;5.50;99.90;;;;;;5028492;28;20802;-57
2021/03/01 01:28:12;;;;;;;14.07;8.70;;;5.40;99.90;;;;;;5028078;28;20453;-56
2021/03/01 01:30:41;;;;;;;12.47;9.20;;;5.50;99.90;;;;;;5028401;28;20781;-58
2021/03/01 01:33:09;;;;;;;15.93;8.33;;;5.40;99.90;;;;;;5029090;28;20556;-54
2021/03/01 01:35:38;;;;;;;13.37;8.30;;;5.40;99.90;;;;;;5028365;28;20503;-54
2021/03/01 01:38:06;;;;;;;18.97;9.67;;;5.40;99.90;;;;;;5030068;28;20754;-56
2021/03/01 01:40:36;;;;;;;14.73;8.53;;;5.30;99.90;;;;;;5029350;28;20767;-56
2021/03/01 01:43:05;;;;;;;13.80;8.00;;;5.40;99.90;;;;;;5029843;28;20515;-53
2021/03/01 01:45:34;;;;;;;19.10;8.40;;;5.50;99.90;;;;;;5029659;28;20449;-53
2021/03/01 01:48:02;;;;;;;15.80;8.93;;;5.50;99.90;;;;;;5030221;28;20500;-52
2021/03/01 01:50:31;;;;;;;15.30;8.53;;;5.50;99.90;;;;;;5029346;28;20449;-58
2021/03/01 01:52:59;;;;;;;20.27;8.50;;;5.50;99.90;;;;;;5029495;28;20433;-58
2021/03/01 01:55:29;;;;;;;15.23;8.20;;;5.50;99.90;;;;;;5029053;28;20888;-54
2021/03/01 01:57:59;;;;;;;14.47;9.40;;;5.50;99.90;;;;;;5030501;28;20491;-54
2021/03/01 02:00:43;;;;;;;14.90;8.03;;;5.50;99.90;;;;;;5029615;28;20457;-53
2021/03/01 02:03:28;;;;;;;17.57;9.10;;;5.50;99.90;;;;;;5029653;28;20444;-54
2021/03/01 02:06:00;;;;;;;16.37;8.33;;;5.50;99.90;;;;;;5030393;28;20444;-53
2021/03/01 02:08:34;;;;;;;14.40;8.23;;;5.50;99.90;;;;;;5029290;28;20737;-55
2021/03/01 02:11:10;;;;;;;15.07;9.03;;;5.50;99.90;;;;;;5029961;28;20459;-51
2021/03/01 02:13:47;;;;;;;17.40;8.33;;;5.50;99.90;;;;;;5029048;28;20488;-53
2021/03/01 02:16:19;;;;;;;16.77;8.83;;;5.50;99.90;;;;;;5027946;28;20515;-53
2021/03/01 02:18:47;;;;;;;13.73;8.97;;;5.50;99.90;;;;;;5027529;28;20480;-54
2021/03/01 02:21:18;;;;;;;17.53;8.10;;;5.50;99.90;;;;;;5029049;28;20461;-55
2021/03/01 02:23:47;;;;;;;17.03;8.73;;;5.50;99.90;;;;;;5029423;28;20855;-56
2021/03/01 02:26:18;;;;;;;16.33;8.27;;;5.60;99.90;;;;;;5029286;28;20785;-55
2021/03/01 02:28:51;;;;;;;17.17;8.50;;;5.60;99.90;;;;;;5028586;28;20460;-54
2021/03/01 02:31:21;;;;;;;17.37;9.50;;;5.60;99.90;;;;;;5029740;28;20483;-51
2021/03/01 02:33:54;;;;;;;18.20;8.97;;;5.60;99.90;;;;;;5029422;28;20828;-54
2021/03/01 02:36:27;;;;;;;16.13;7.63;;;5.60;99.90;;;;;;5028183;28;20877;-55
2021/03/01 02:38:59;;;;;;;18.03;9.77;;;5.60;99.90;;;;;;5028400;28;20497;-56
2021/03/01 02:41:29;;;;;;;18.70;9.90;;;5.60;99.90;;;;;;5028780;28;20499;-57
2021/03/01 02:43:58;;;;;;;15.37;8.23;;;5.60;99.90;;;;;;5029213;28;20513;-56
2021/03/01 02:46:27;;;;;;;16.30;9.57;;;5.60;99.90;;;;;;5028395;28;20766;-57
2021/03/01 02:48:56;;;;;;;15.10;7.83;;;5.60;99.90;;;;;;5028540;28;20852;-56
2021/03/01 02:51:25;;;;;;;13.77;7.73;;;5.60;99.90;;;;;;5028730;28;20774;-56
2021/03/01 02:53:55;;;;;;;17.60;9.10;;;5.60;99.90;;;;;;5028448;28;20453;-58
2021/03/01 02:56:25;;;;;;;14.43;7.40;;;5.60;99.90;;;;;;5028928;28;20837;-55
2021/03/01 02:58:55;;;;;;;18.83;8.70;;;5.50;99.90;;;;;;5029414;28;20680;-56
2021/03/01 03:01:24;;;;;;;17.33;9.80;;;5.60;99.90;;;;;;5029381;28;20441;-62
2021/03/01 03:03:55;;;;;;;17.60;7.87;;;5.60;99.90;;;;;;5028879;28;20867;-55
2021/03/01 03:06:25;;;;;;;15.47;7.77;;;5.60;99.90;;;;;;5028226;28;20770;-55
2021/03/01 03:08:55;;;;;;;16.90;9.40;;;5.60;99.90;;;;;;5028648;28;20434;-54
2021/03/01 03:11:28;;;;;;;15.50;8.80;;;5.60;99.90;;;;;;5027090;28;20824;-55
2021/03/01 03:13:58;;;;;;;12.53;7.47;;;5.50;99.90;;;;;;5019333;28;20782;-58
2021/03/01 03:16:28;;;;;;;16.60;8.37;;;5.50;99.90;;;;;;5001416;28;20825;-57
2021/03/01 03:18:57;;;;;;;14.77;8.43;;;5.60;99.90;;;;;;5812287;23;20709;-58
2021/03/01 03:24:00;;;;;;;22.70;9.77;;;5.60;99.90;;;;;;5512216;23;20484;-58
2021/03/01 03:29:04;;;;;;;17.57;10.60;;;5.60;99.90;;;;;;5038588;23;20821;-56
2021/03/01 03:31:31;;;;;;;20.50;10.07;;;5.70;99.90;;;;;;5015588;28;20457;-57
2021/03/01 03:34:00;;;;;;;16.37;9.23;;;5.70;99.90;;;;;;5022052;28;20445;-58
2021/03/01 03:36:31;;;;;;;20.47;9.33;;;5.70;99.90;;;;;;5018146;28;20809;-56
2021/03/01 03:49:39;;;;;;;14.27;7.93;;;5.60;99.90;;;;;;5693955;23;20230;-50
2021/03/01 04:25:50;;;;;;;17.40;9.37;;;5.60;99.90;;;;;;5955569;23;20753;-56
2021/03/01 05:22:45;;;;;;;23.33;11.40;;;5.30;99.90;;;;;;5394979;23;20465;-56
2021/03/01 05:25:14;;;;;;;18.00;9.20;;;5.30;99.90;;;;;;5036395;28;20441;-56
2021/03/01 05:27:43;;;;;;;16.30;9.60;;;5.30;99.90;;;;;;5014835;28;20749;-56
2021/03/01 06:37:33;;;;;;;18.30;11.10;;;5.70;99.90;;;;;;5315435;22;20478;-55
2021/03/01 06:40:01;;;;;;;16.87;8.40;;;5.70;99.90;;;;;;5013456;28;20798;-60
2021/03/01 06:55:28;;;;;;;18.43;9.93;;;5.90;99.90;;;;;;5019715;23;20787;-58
2021/03/01 06:57:57;;;;;;;22.83;9.17;;;5.90;99.90;;;;;;4989051;28;20447;-57
2021/03/01 07:00:28;;;;;;;18.37;9.80;;;6.00;99.90;;;;;;4984652;28;20806;-56
2021/03/01 07:02:57;;;;;;;16.80;8.90;;;6.00;99.90;;;;;;4984957;28;20811;-55
2021/03/01 07:10:38;;;;;;;15.30;8.77;;;6.10;99.90;;;;;;5923705;23;20713;-54
2021/03/01 07:13:08;;;;;;;20.67;10.47;;;6.10;99.90;;;;;;4970729;28;20455;-54
2021/03/01 07:15:35;;;;;;;19.80;9.80;;;6.20;99.90;;;;;;4983576;28;20791;-55
2021/03/01 07:18:02;;;;;;;22.50;10.50;;;6.10;99.90;;;;;;4977343;28;20478;-56
2021/03/01 07:20:29;;;;;;;14.83;9.67;;;6.20;99.90;;;;;;4966189;28;20451;-51
2021/03/01 07:22:57;;;;;;;17.10;9.83;;;6.20;99.90;;;;;;4978439;28;20518;-54
2021/03/01 07:25:25;;;;;;;17.70;10.90;;;6.30;99.90;;;;;;4968246;29;20791;-56
2021/03/01 07:27:55;;;;;;;20.23;10.30;;;6.40;99.90;;;;;;4964860;29;20844;-56
2021/03/01 07:30:26;;;;;;;21.80;9.77;;;6.40;99.90;;;;;;4963570;29;20760;-57
2021/03/01 07:32:55;;;;;;;17.80;11.27;;;6.50;99.90;;;;;;4963853;29;20817;-54
2021/03/01 07:35:22;;;;;;;20.63;11.57;;;6.50;99.90;;;;;;4963119;29;20853;-54
2021/03/01 07:37:50;;;;;;;20.83;9.67;;;6.50;99.90;;;;;;4963602;29;20925;-56
2021/03/01 07:40:19;;;;;;;20.80;10.70;;;6.60;99.90;;;;;;4962671;29;20471;-59
2021/03/01 07:42:48;;;;;;;16.17;9.50;;;6.70;99.90;;;;;;4970631;29;20464;-56
2021/03/01 07:45:18;;;;;;;20.40;9.80;;;6.70;99.90;;;;;;4971892;29;20471;-54
2021/03/01 07:47:46;;;;;;;18.33;10.60;;;6.80;99.90;;;;;;4970908;29;20506;-57
2021/03/01 07:50:37;;;;;;;20.00;10.33;;;6.80;99.90;;;;;;4970984;29;20836;-56
2021/03/01 07:53:05;;;;;;;13.80;9.10;;;6.80;99.90;;;;;;4970070;29;20467;-57
2021/03/01 07:55:33;;;;;;;18.40;9.57;;;6.80;99.90;;;;;;4969865;29;20808;-56
2021/03/01 07:58:03;;;;;;;18.93;10.00;;;6.90;99.90;;;;;;4970276;29;20539;-57
2021/03/01 08:00:34;;;;;;;17.83;8.33;;;6.90;99.90;;;;;;5001778;28;20509;-55
2021/03/01 08:03:22;;;;;;;17.73;9.90;;;6.90;99.90;;;;;;4988207;28;20795;-57
2021/03/01 08:05:53;;;;;;;19.90;9.93;;;6.90;99.90;;;;;;4989466;28;20906;-56
2021/03/01 08:08:46;;;;;;;17.80;9.90;;;6.90;99.90;;;;;;4984243;28;20463;-55
2021/03/01 08:11:15;;;;;;;13.47;9.10;;;6.90;99.90;;;;;;4977437;28;20529;-54
2021/03/01 08:13:44;;;;;;;21.10;9.83;;;6.90;99.90;;;;;;4991372;28;20458;-55
2021/03/01 08:19:44;;;;;;;19.27;10.37;;;6.90;99.90;;;;;;5143018;27;20361;-57
2021/03/01 08:22:12;;;;;;;19.93;10.20;;;7.10;99.90;;;;;;5134962;27;20463;-55
2021/03/01 08:24:47;;;;;;;18.83;10.80;;;7.20;99.90;;;;;;5135950;28;20448;-56
2021/03/01 08:27:44;;;;;;;20.20;9.03;;;7.20;99.90;;;;;;5132030;28;20780;-57
2021/03/01 08:30:23;;;;;;;14.70;9.47;;;7.20;99.90;;;;;;5131766;27;20986;-55
2021/03/01 08:33:25;;;;;;;17.20;10.07;;;7.30;99.90;;;;;;5133737;27;20800;-57
2021/03/01 08:35:54;;;;;;;15.23;8.77;;;7.20;99.90;;;;;;5129646;27;20804;-49
2021/03/01 08:38:49;;;;;;;17.77;10.80;;;7.30;99.90;;;;;;5136681;27;20475;-47
2021/03/01 08:41:18;;;;;;;21.30;9.63;;;7.20;99.90;;;;;;5137445;27;20444;-50
2021/03/01 08:43:48;;;;;;;16.07;7.33;;;7.20;99.90;;;;;;5131670;27;20534;-50
2021/03/01 08:46:20;;;;;;;15.03;8.97;;;7.10;99.90;;;;;;5133613;28;20500;-50
2021/03/01 08:48:50;;;;;;;12.97;8.20;;;7.10;99.90;;;;;;5134194;28;20425;-50
2021/03/01 08:51:19;;;;;;;16.70;9.33;;;7.10;99.90;;;;;;5124932;28;20799;-50
2021/03/01 08:53:48;;;;;;;19.37;9.70;;;7.10;99.90;;;;;;5137337;28;20463;-48
2021/03/01 08:56:20;;;;;;;15.80;8.63;;;7.00;99.90;;;;;;5142465;27;20440;-48
2021/03/01 08:59:03;;;;;;;14.83;9.90;;;7.10;99.90;;;;;;5142341;27;20601;-51
2021/03/01 09:01:31;;;;;;;18.13;8.40;;;7.10;99.90;;;;;;5134511;27;20826;-45
2021/03/01 09:04:02;;;;;;;12.73;8.00;;;7.10;99.90;;;;;;5141699;27;20829;-47
2021/03/01 09:06:33;;;;;;;17.37;9.23;;;7.30;99.90;;;;;;5138243;28;20834;-51
2021/03/01 09:09:08;;;;;;;16.20;9.80;;;7.50;99.90;;;;;;5118879;28;20429;-45
2021/03/01 09:11:38;;;;;;;11.60;8.63;;;7.50;99.90;;;;;;5138033;28;20884;-46
2021/03/01 09:14:13;;;;;;;15.60;10.10;;;7.50;99.90;;;;;;5138946;28;20807;-49
2021/03/01 09:16:42;;;;;;;15.23;8.87;;;7.50;99.90;;;;;;5132350;28;20444;-50
2021/03/01 09:19:12;;;;;;;20.77;10.47;;;7.50;99.90;;;;;;5139154;27;20870;-50
2021/03/01 09:21:43;;;;;;;15.00;9.03;;;7.60;99.90;;;;;;5138537;27;20436;-51
2021/03/01 09:24:13;;;;;;;16.97;10.70;;;7.60;99.90;;;;;;5139315;27;20475;-50
2021/03/01 09:26:43;;;;;;;19.10;8.93;;;7.60;99.90;;;;;;5138387;27;20527;-49
2021/03/01 09:29:14;;;;;;;15.60;8.53;;;7.60;99.90;;;;;;5124998;28;20948;-54
2021/03/01 09:31:44;;;;;;;12.60;8.83;;;7.60;99.90;;;;;;5120198;28;20452;-51
2021/03/01 09:34:13;;;;;;;16.90;9.10;;;7.70;99.90;;;;;;5113184;28;20703;-45
2021/03/01 09:36:47;;;;;;;15.20;8.77;;;7.70;99.90;;;;;;5107101;28;20832;-46
2021/03/01 09:39:19;;;;;;;15.23;9.67;;;7.80;99.90;;;;;;5113582;28;20955;-47
2021/03/01 09:41:46;;;;;;;13.03;7.73;;;7.90;99.90;;;;;;5119886;28;20436;-50
2021/03/01 09:44:26;;;;;;;13.50;8.20;;;7.80;99.90;;;;;;5138097;28;20429;-47
2021/03/01 09:46:54;;;;;;;15.33;8.27;;;7.80;99.90;;;;;;5142161;22;20488;-51
2021/03/01 09:49:22;;;;;;;17.67;9.43;;;7.90;99.90;;;;;;5281200;22;20470;-50
2021/03/01 09:51:52;;;;;;;16.17;10.27;;;8.00;99.90;;;;;;5098244;28;20513;-48
2021/03/01 09:57:05;;;;;;;17.90;9.77;;;8.20;99.90;;;;;;5304471;22;20485;-49
2021/03/01 09:59:36;;;;;;;19.63;9.83;;;8.30;99.90;;;;;;5076187;28;20423;-49
2021/03/01 10:02:07;;;;;;;15.17;9.40;;;8.40;99.90;;;;;;5082141;28;20486;-47
2021/03/01 10:04:37;;;;;;;19.60;10.37;;;8.40;99.90;;;;;;5061562;28;20835;-48
2021/03/01 10:07:17;;;;;;;14.03;8.57;;;8.40;99.90;;;;;;5079712;28;20851;-48
2021/03/01 10:09:45;;;;;;;12.47;8.03;;;8.60;99.90;;;;;;5076117;28;20455;-49
2021/03/01 10:12:13;;;;;;;20.27;9.60;;;8.70;99.90;;;;;;5074849;28;20443;-49
2021/03/01 10:14:39;;;;;;;16.77;9.63;;;9.00;99.90;;;;;;5056194;28;20451;-47
2021/03/01 10:17:18;;;;;;;21.23;9.83;;;9.20;99.90;;;;;;5071047;28;20484;-48
2021/03/01 10:19:45;;;;;;;18.37;9.40;;;9.60;99.90;;;;;;5070184;28;20459;-46
2021/03/01 10:22:12;;;;;;;12.23;8.00;;;10.00;99.90;;;;;;5056386;28;20444;-53
2021/03/01 10:24:47;;;;;;;14.63;8.60;;;9.80;99.90;;;;;;5080267;28;20442;-51
2021/03/01 10:27:16;;;;;;;15.33;9.77;;;9.50;99.90;;;;;;5069593;28;20771;-52
2021/03/01 10:29:45;;;;;;;17.03;9.13;;;9.30;99.90;;;;;;5062806;28;20783;-48
2021/03/01 10:32:23;;;;;;;15.07;9.03;;;9.00;99.90;;;;;;5060780;28;20781;-52
2021/03/01 10:34:52;;;;;;;16.73;8.07;;;8.70;99.90;;;;;;5054349;28;20462;-47
2021/03/01 10:37:26;;;;;;;13.70;7.33;;;8.60;99.90;;;;;;5071844;28;20464;-47
2021/03/01 10:39:56;;;;;;;16.80;8.50;;;8.60;99.90;;;;;;5055914;28;20459;-49
2021/03/01 10:42:26;;;;;;;15.03;8.30;;;8.80;99.90;;;;;;5066290;28;20455;-51
2021/03/01 10:44:56;;;;;;;12.10;7.57;;;9.20;99.90;;;;;;5058617;28;20443;-49
2021/03/01 10:47:27;;;;;;;13.47;7.70;;;9.90;99.90;;;;;;5056350;28;20855;-50
2021/03/01 10:49:57;;;;;;;12.27;8.07;;;10.90;99.90;;;;;;5054028;28;21536;-49
2021/03/01 10:52:26;;;;;;;12.10;8.43;;;12.20;99.90;;;;;;5054470;28;20791;-51
2021/03/01 10:54:57;;;;;;;16.07;7.50;;;13.10;99.90;;;;;;5055431;28;20790;-47
2021/03/01 10:57:27;;;;;;;13.93;8.37;;;13.70;99.90;;;;;;5063367;28;20954;-48
2021/03/01 10:59:56;;;;;;;16.37;8.20;;;14.30;99.90;;;;;;5066824;28;20833;-50
2021/03/01 11:02:25;;;;;;;13.30;8.93;;;14.30;99.90;;;;;;5067688;28;20859;-49
2021/03/01 11:04:53;;;;;;;16.10;8.60;;;14.40;99.90;;;;;;5067761;28;20539;-45
2021/03/01 11:07:22;;;;;;;15.37;9.73;;;14.70;99.90;;;;;;5073746;28;20451;-44
2021/03/01 11:09:50;;;;;;;15.23;9.43;;;15.00;98.30;;;;;;5074579;28;20807;-44
2021/03/01 11:12:20;;;;;;;11.40;8.83;;;15.00;96.90;;;;;;5067765;28;20764;-47
2021/03/01 11:14:48;;;;;;;13.17;8.53;;;14.80;95.40;;;;;;5081893;28;20438;-50
2021/03/01 11:17:17;;;;;;;16.80;9.27;;;14.30;96.80;;;;;;5069877;28;20923;-46
2021/03/01 11:19:47;;;;;;;13.60;8.20;;;13.70;98.60;;;;;;5059031;28;20784;-46
2021/03/01 11:22:15;;;;;;;12.97;7.87;;;13.60;99.00;;;;;;5065531;28;20854;-46
2021/03/01 11:24:43;;;;;;;16.90;8.10;;;13.60;98.70;;;;;;5061605;28;20458;-50
2021/03/01 11:27:12;;;;;;;14.97;9.27;;;13.30;99.40;;;;;;5069340;28;20772;-46
2021/03/01 11:29:41;;;;;;;16.87;9.70;;;12.80;99.90;;;;;;5064915;28;20955;-46
2021/03/01 11:32:10;;;;;;;14.30;9.90;;;12.10;99.90;;;;;;5072007;28;20446;-45
2021/03/01 11:34:38;;;;;;;12.40;8.57;;;11.70;99.90;;;;;;5071712;28;20454;-44
2021/03/01 11:37:06;;;;;;;13.40;9.10;;;11.40;99.90;;;;;;5070065;28;20458;-46
2021/03/01 11:39:35;;;;;;;12.17;8.30;;;11.30;99.90;;;;;;5068510;28;20861;-45
2021/03/01 11:42:03;;;;;;;17.70;8.27;;;11.10;99.90;;;;;;5054816;28;20902;-47
2021/03/01 11:44:32;;;;;;;17.40;8.63;;;10.90;99.90;;;;;;5051333;28;20796;-47
2021/03/01 11:47:01;;;;;;;13.33;8.33;;;10.80;99.90;;;;;;5046108;28;21193;-47
2021/03/01 11:49:28;;;;;;;16.27;9.00;;;10.80;99.90;;;;;;5053415;28;20442;-46
2021/03/01 11:51:56;;;;;;;14.73;8.47;;;10.60;99.90;;;;;;5058595;28;20800;-46
2021/03/01 11:54:23;;;;;;;12.70;8.50;;;10.50;99.90;;;;;;5066283;28;20457;-48
2021/03/01 11:56:51;;;;;;;13.47;7.37;;;10.40;99.90;;;;;;5057150;28;20497;-47
2021/03/01 11:59:19;;;;;;;17.83;8.40;;;10.30;99.90;;;;;;5054931;28;20479;-47
2021/03/01 12:01:47;;;;;;;13.53;8.50;;;10.30;99.90;;;;;;5051857;28;20846;-47
2021/03/01 12:04:17;;;;;;;18.87;8.90;;;10.10;99.90;;;;;;5056301;28;21012;-48
2021/03/01 12:06:45;;;;;;;13.00;9.50;;;10.10;99.90;;;;;;5055891;28;20827;-50
2021/03/01 12:09:13;;;;;;;17.90;9.47;;;10.10;99.90;;;;;;5055078;28;20769;-49
2021/03/01 12:11:41;;;;;;;15.30;8.73;;;10.00;99.90;;;;;;5058543;28;20837;-51
2021/03/01 12:14:09;;;;;;;18.30;11.50;;;10.10;99.90;;;;;;5055129;28;20850;-51
2021/03/01 12:16:38;;;;;;;11.40;8.97;;;10.00;99.90;;;;;;5053673;28;20463;-50
2021/03/01 12:19:06;;;;;;;12.60;9.23;;;10.00;99.90;;;;;;5053564;28;20467;-48
2021/03/01 12:21:35;;;;;;;16.07;8.50;;;9.90;99.90;;;;;;5054595;28;20431;-53
2021/03/01 12:24:04;;;;;;;14.17;9.93;;;9.90;99.90;;;;;;5054657;28;20658;-53
2021/03/01 12:26:32;;;;;;;13.73;8.97;;;9.90;99.90;;;;;;5054858;28;20751;-49
2021/03/01 12:29:00;;;;;;;14.40;10.77;;;10.00;99.90;;;;;;5054249;28;20447;-46
2021/03/01 12:31:29;;;;;;;13.93;8.20;;;10.10;99.90;;;;;;5056432;28;20469;-49
2021/03/01 12:33:57;;;;;;;14.10;9.50;;;10.10;99.90;;;;;;5056392;28;20773;-49
2021/03/01 12:36:25;;;;;;;15.40;10.23;;;10.10;99.90;;;;;;5055272;28;20443;-51
2021/03/01 12:38:55;;;;;;;17.80;10.50;;;10.30;99.90;;;;;;5061774;28;20838;-48
2021/03/01 12:41:24;;;;;;;11.97;8.93;;;10.40;99.90;;;;;;5038134;28;20453;-48
2021/03/01 12:43:52;;;;;;;11.90;8.90;;;10.30;99.90;;;;;;5033323;28;20529;-47
2021/03/01 12:46:20;;;;;;;14.43;9.23;;;10.10;99.90;;;;;;5034327;28;20778;-47
2021/03/01 12:48:50;;;;;;;18.63;11.37;;;10.20;99.90;;;;;;5034952;28;20806;-46
2021/03/01 12:51:19;;;;;;;14.83;9.10;;;10.20;99.90;;;;;;5034646;28;20464;-45
2021/03/01 12:53:47;;;;;;;13.40;8.43;;;10.40;99.90;;;;;;5048922;28;20793;-48
2021/03/01 12:56:16;;;;;;;13.97;9.00;;;10.40;99.90;;;;;;5045169;28;20867;-47
2021/03/01 12:58:44;;;;;;;13.27;8.13;;;10.50;99.90;;;;;;5054855;28;20939;-47
2021/03/01 13:01:12;;;;;;;16.07;9.90;;;10.50;99.90;;;;;;5053694;28;20800;-45
2021/03/01 13:03:40;;;;;;;18.27;10.47;;;10.60;99.90;;;;;;5058043;28;20447;-46
2021/03/01 13:06:09;;;;;;;17.23;10.30;;;10.60;99.90;;;;;;5053832;28;20498;-47
2021/03/01 13:08:38;;;;;;;13.20;8.97;;;10.80;99.90;;;;;;5057520;28;20787;-46
2021/03/01 13:11:06;;;;;;;15.53;8.87;;;10.80;99.90;;;;;;5058376;28;20807;-48
2021/03/01 13:13:36;;;;;;;16.70;9.50;;;11.00;99.90;;;;;;5049156;28;20474;-47
2021/03/01 13:16:04;;;;;;;20.23;11.20;;;11.20;99.90;;;;;;5056177;28;20729;-50
2021/03/01 13:18:32;;;;;;;15.43;9.50;;;11.20;99.90;;;;;;5057240;28;20586;-48
2021/03/01 13:20:59;;;;;;;15.37;9.23;;;11.10;99.90;;;;;;5060369;28;20453;-45
2021/03/01 13:23:27;;;;;;;14.07;7.57;;;11.00;99.90;;;;;;5065281;28;20451;-48
2021/03/01 13:25:57;;;;;;;12.13;8.63;;;11.00;99.90;;;;;;5060106;28;20769;-48
2021/03/01 13:28:26;;;;;;;11.80;8.20;;;10.80;99.90;;;;;;5058345;28;20507;-50
2021/03/01 13:30:56;;;;;;;12.50;8.60;;;10.80;99.90;;;;;;5056557;28;20828;-48
2021/03/01 13:33:25;;;;;;;14.93;9.97;;;10.80;99.90;;;;;;5056661;28;20787;-49
2021/03/01 13:35:54;;;;;;;12.53;9.83;;;10.80;99.90;;;;;;5055970;28;20775;-48
2021/03/01 13:38:22;;;;;;;10.93;7.83;;;10.80;99.90;;;;;;5056073;28;20809;-50
2021/03/01 13:40:51;;;;;;;12.37;8.30;;;10.80;99.90;;;;;;5055587;28;20853;-52
2021/03/01 13:43:18;;;;;;;13.53;9.20;;;10.80;99.90;;;;;;5056610;28;20869;-49
2021/03/01 13:45:47;;;;;;;14.57;9.30;;;10.70;99.90;;;;;;5051854;28;20910;-49
2021/03/01 13:48:17;;;;;;;11.70;9.00;;;10.80;99.90;;;;;;5055626;28;20871;-50
2021/03/01 13:50:45;;;;;;;20.13;9.43;;;11.00;99.90;;;;;;5055430;28;20477;-52
2021/03/01 13:53:13;;;;;;;13.10;10.10;;;11.10;99.90;;;;;;5058077;28;20459;-46
2021/03/01 13:55:42;;;;;;;15.73;9.40;;;11.10;99.90;;;;;;5062739;28;20872;-48
2021/03/01 13:58:09;;;;;;;16.23;9.37;;;11.00;99.90;;;;;;5072371;28;20893;-47
2021/03/01 14:00:37;;;;;;;11.53;7.97;;;11.00;99.90;;;;;;5066514;28;20751;-48
2021/03/01 14:03:06;;;;;;;10.77;7.90;;;11.00;99.90;;;;;;5042739;28;20793;-50
2021/03/01 14:05:36;;;;;;;13.33;8.20;;;11.10;99.90;;;;;;5062138;28;21691;-49
2021/03/01 14:08:05;;;;;;;16.43;10.20;;;11.20;99.90;;;;;;5064805;28;20846;-52
2021/03/01 14:10:33;;;;;;;10.57;7.30;;;11.30;99.90;;;;;;5055091;28;20936;-46
2021/03/01 14:13:00;;;;;;;18.23;8.50;;;11.50;99.90;;;;;;5047699;28;20919;-49
2021/03/01 14:15:29;;;;;;;13.97;8.30;;;11.50;99.90;;;;;;5036809;28;21061;-49
2021/03/01 14:17:57;;;;;;;14.30;9.03;;;11.50;99.90;;;;;;5037038;28;20799;-49
2021/03/01 14:20:26;;;;;;;12.70;7.80;;;11.50;99.90;;;;;;5037738;28;20456;-52
2021/03/01 14:22:55;;;;;;;11.60;7.80;;;11.60;99.90;;;;;;5038168;28;20862;-46
2021/03/01 14:25:23;;;;;;;11.87;7.53;;;11.60;99.90;;;;;;5037862;28;20753;-47
2021/03/01 14:27:52;;;;;;;16.70;9.20;;;11.60;99.90;;;;;;5038032;28;20510;-51
2021/03/01 14:30:21;;;;;;;11.80;8.00;;;11.70;99.90;;;;;;5037794;28;20912;-52
2021/03/01 14:32:49;;;;;;;11.63;7.27;;;11.80;99.90;;;;;;5036679;28;20851;-49
2021/03/01 14:35:18;;;;;;;12.47;8.33;;;11.80;99.90;;;;;;5037214;28;20478;-50
2021/03/01 14:37:46;;;;;;;13.87;7.23;;;11.80;99.90;;;;;;5037379;28;20822;-53
2021/03/01 14:40:17;;;;;;;9.77;6.20;;;11.80;99.90;;;;;;5037833;28;20820;-48
2021/03/01 14:42:45;;;;;;;13.47;8.73;;;11.80;99.90;;;;;;5037606;28;20510;-55
2021/03/01 14:45:15;;;;;;;12.23;8.13;;;11.90;99.90;;;;;;5036916;28;20810;-50
2021/03/01 14:47:44;;;;;;;10.20;7.70;;;12.00;99.90;;;;;;5037128;28;20789;-52
2021/03/01 14:50:12;;;;;;;17.60;8.17;;;12.00;99.90;;;;;;5036607;28;20763;-53
2021/03/01 14:52:41;;;;;;;11.00;6.80;;;12.00;99.90;;;;;;5037099;28;20860;-47
2021/03/01 14:55:10;;;;;;;11.60;8.50;;;12.00;99.90;;;;;;5037904;28;20452;-48
2021/03/01 14:57:38;;;;;;;15.63;7.60;;;12.00;99.90;;;;;;5054615;28;20424;-48
2021/03/01 15:00:07;;;;;;;11.40;7.63;;;11.90;99.90;;;;;;5040121;28;20900;-47
2021/03/01 15:49:12;;;;;;;10.10;7.37;;;10.80;99.90;;;;;;5562198;22;20557;-49
2021/03/01 15:51:40;;;;;;;11.10;6.47;;;10.80;99.90;;;;;;5034559;28;20900;-52
2021/03/01 15:54:08;;;;;;;13.47;7.77;;;10.80;99.90;;;;;;5043716;28;20468;-50
2021/03/01 15:56:36;;;;;;;26.03;9.90;;;10.70;99.90;;;;;;5045076;28;20507;-51
2021/03/01 15:59:04;;;;;;;12.87;7.03;;;10.60;99.90;;;;;;5048950;28;20462;-49
2021/03/01 16:01:31;;;;;;;11.37;7.37;;;10.60;99.90;;;;;;5051274;28;20455;-51
2021/03/01 16:03:58;;;;;;;17.73;7.90;;;10.50;99.90;;;;;;5047535;28;20540;-48
2021/03/01 16:06:27;;;;;;;13.70;7.60;;;10.50;99.90;;;;;;5052450;28;20523;-48
2021/03/01 16:08:55;;;;;;;11.77;7.30;;;10.40;99.90;;;;;;5042598;28;20439;-47
2021/03/01 16:11:23;;;;;;;10.77;7.57;;;10.40;99.90;;;;;;5039193;28;20529;-51
2021/03/01 16:13:50;;;;;;;14.80;8.50;;;10.30;99.90;;;;;;5038635;28;20772;-52
2021/03/01 16:16:18;;;;;;;13.10;6.80;;;10.20;99.90;;;;;;5042574;28;20475;-53
2021/03/01 16:18:46;;;;;;;13.27;8.23;;;10.20;99.90;;;;;;5035904;28;20487;-48
2021/03/01 16:21:14;;;;;;;21.93;7.00;;;10.10;99.90;;;;;;5034648;28;20855;-49
2021/03/01 16:23:43;;;;;;;13.60;6.40;;;10.00;99.90;;;;;;5043854;28;20495;-50
2021/03/01 16:26:11;;;;;;;14.97;8.20;;;10.00;99.90;;;;;;5032120;28;20459;-51
2021/03/01 16:28:39;;;;;;;12.50;7.50;;;9.90;99.90;;;;;;5042124;28;20788;-49
2021/03/01 16:31:07;;;;;;;16.03;8.37;;;9.90;99.90;;;;;;5047544;28;20771;-51
2021/03/01 16:33:36;;;;;;;13.97;6.90;;;9.80;99.90;;;;;;5044613;28;20902;-47
2021/03/01 16:36:04;;;;;;;17.23;8.80;;;9.70;99.90;;;;;;5045266;28;20823;-50
2021/03/01 16:38:31;;;;;;;15.57;7.53;;;9.70;99.90;;;;;;5052112;28;20960;-49
2021/03/01 16:40:59;;;;;;;14.10;7.13;;;9.60;99.90;;;;;;5033119;28;20464;-49
2021/03/01 16:43:26;;;;;;;13.60;6.83;;;9.50;99.90;;;;;;5522762;22;21194;-48
2021/03/01 16:45:53;;;;;;;10.67;6.33;;;9.50;99.90;;;;;;5732140;22;20668;-48
2021/03/01 16:48:28;;;;;;;14.97;8.20;;;9.50;99.90;;;;;;5054541;28;20785;-50
2021/03/01 16:50:55;;;;;;;13.10;6.93;;;9.40;99.90;;;;;;5049445;28;20855;-47
2021/03/01 16:56:00;;;;;;;13.80;6.70;;;9.30;99.90;;;;;;5969338;22;20477;-49
2021/03/01 16:58:28;;;;;;;10.33;6.50;;;9.20;99.90;;;;;;5030251;28;20486;-51
2021/03/01 17:00:57;;;;;;;11.30;6.70;;;9.20;99.90;;;;;;5058542;28;20457;-49